Terminal Aerodrome Forecast
Issued by NWS

Home | Current Version | Previous Version | Graphics & Text | Print | Product List | Glossary On
Versions: 1 2 3 4 5 6 7 8 9 10 11 12 13 14 15 16 17 18 19 20 21 22 23
000
FTUS43 KLOT 242300
TAFORD
TAF
KORD 242335Z 2500/2606 28011KT P6SM VCSH BKN010 OVC015
      TEMPO 2500/2503 4SM -RADZ BKN008
     FM250300 28010G15KT 6SM BR SCT009 OVC013
     FM251300 25013KT P6SM BKN010 OVC015
     FM251800 22014KT P6SM SCT015 BKN200
     FM252100 20013KT P6SM FEW020 BKN200
     FM260000 19011KT P6SM SCT200=

USA.gov is the U.S. government's official web portal to all federal, state and local government web resources and services.